sensor_id;sensor_type;location;lat;lon;timestamp;temperature;humidity
41876;DHT22;27555;50.808;4.402;2023-12-20T00:01:04;7.40;99.90
41876;DHT22;27555;50.808;4.402;2023-12-20T00:03:29;7.50;99.90
41876;DHT22;27555;50.808;4.402;2023-12-20T00:05:55;7.50;99.90
41876;DHT22;27555;50.808;4.402;2023-12-20T00:08:20;7.50;99.90
41876;DHT22;27555;50.808;4.402;2023-12-20T00:10:46;7.50;99.90
41876;DHT22;27555;50.808;4.402;2023-12-20T00:13:11;7.50;99.90
41876;DHT22;27555;50.808;4.402;2023-12-20T00:15:37;7.70;99.90
41876;DHT22;27555;50.808;4.402;2023-12-20T00:18:03;7.80;99.90
41876;DHT22;27555;50.808;4.402;2023-12-20T00:20:29;7.80;99.90
41876;DHT22;27555;50.808;4.402;2023-12-20T00:22:57;7.70;99.90
41876;DHT22;27555;50.808;4.402;2023-12-20T00:25:23;7.60;99.90
41876;DHT22;27555;50.808;4.402;2023-12-20T00:27:49;7.60;99.90
41876;DHT22;27555;50.808;4.402;2023-12-20T00:30:14;7.60;99.90
41876;DHT22;27555;50.808;4.402;2023-12-20T00:32:40;7.40;99.90
41876;DHT22;27555;50.808;4.402;2023-12-20T00:35:14;7.30;99.90
41876;DHT22;27555;50.808;4.402;2023-12-20T00:37:40;7.20;99.90
41876;DHT22;27555;50.808;4.402;2023-12-20T00:40:06;7.20;99.90
41876;DHT22;27555;50.808;4.402;2023-12-20T00:42:32;7.20;99.90
41876;DHT22;27555;50.808;4.402;2023-12-20T00:44:58;7.10;99.90
41876;DHT22;27555;50.808;4.402;2023-12-20T00:47:23;7.00;99.90
41876;DHT22;27555;50.808;4.402;2023-12-20T00:49:49;7.00;99.90
41876;DHT22;27555;50.808;4.402;2023-12-20T00:52:14;7.00;99.90
41876;DHT22;27555;50.808;4.402;2023-12-20T00:54:42;7.00;99.90
41876;DHT22;27555;50.808;4.402;2023-12-20T00:57:09;7.00;99.90
41876;DHT22;27555;50.808;4.402;2023-12-20T00:59:34;7.10;99.90
41876;DHT22;27555;50.808;4.402;2023-12-20T01:02:00;7.00;99.90
41876;DHT22;27555;50.808;4.402;2023-12-20T01:04:25;7.00;99.90
41876;DHT22;27555;50.808;4.402;2023-12-20T01:06:51;7.00;99.90
41876;DHT22;27555;50.808;4.402;2023-12-20T01:09:17;7.00;99.90
41876;DHT22;27555;50.808;4.402;2023-12-20T01:11:43;6.90;99.90
41876;DHT22;27555;50.808;4.402;2023-12-20T01:14:09;6.80;99.90
41876;DHT22;27555;50.808;4.402;2023-12-20T01:16:34;6.80;99.90
41876;DHT22;27555;50.808;4.402;2023-12-20T01:19:00;6.80;99.90
41876;DHT22;27555;50.808;4.402;2023-12-20T01:21:25;6.90;99.90
41876;DHT22;27555;50.808;4.402;2023-12-20T01:23:51;6.70;99.90
41876;DHT22;27555;50.808;4.402;2023-12-20T01:26:16;6.60;99.90
41876;DHT22;27555;50.808;4.402;2023-12-20T01:28:42;6.60;99.90
41876;DHT22;27555;50.808;4.402;2023-12-20T01:31:08;6.50;99.90
41876;DHT22;27555;50.808;4.402;2023-12-20T01:33:34;6.50;99.90
41876;DHT22;27555;50.808;4.402;2023-12-20T01:35:59;6.70;99.90
41876;DHT22;27555;50.808;4.402;2023-12-20T01:38:25;6.60;99.90
41876;DHT22;27555;50.808;4.402;2023-12-20T01:40:50;6.60;99.90
41876;DHT22;27555;50.808;4.402;2023-12-20T01:43:16;6.60;99.90
41876;DHT22;27555;50.808;4.402;2023-12-20T01:45:41;6.40;99.90
41876;DHT22;27555;50.808;4.402;2023-12-20T01:48:07;6.50;99.90
41876;DHT22;27555;50.808;4.402;2023-12-20T01:50:33;6.60;99.90
41876;DHT22;27555;50.808;4.402;2023-12-20T01:53:00;6.50;99.90
41876;DHT22;27555;50.808;4.402;2023-12-20T01:55:29;6.50;99.90
41876;DHT22;27555;50.808;4.402;2023-12-20T01:57:56;6.40;99.90
41876;DHT22;27555;50.808;4.402;2023-12-20T02:00:22;6.40;99.90
41876;DHT22;27555;50.808;4.402;2023-12-20T02:02:52;6.40;99.90
41876;DHT22;27555;50.808;4.402;2023-12-20T02:05:18;6.60;99.90
41876;DHT22;27555;50.808;4.402;2023-12-20T02:07:45;6.70;99.90
41876;DHT22;27555;50.808;4.402;2023-12-20T02:10:10;6.60;99.90
41876;DHT22;27555;50.808;4.402;2023-12-20T02:12:36;6.70;99.90
41876;DHT22;27555;50.808;4.402;2023-12-20T02:15:01;6.70;99.90
41876;DHT22;27555;50.808;4.402;2023-12-20T02:17:27;6.80;99.90
41876;DHT22;27555;50.808;4.402;2023-12-20T02:19:52;6.90;99.90
41876;DHT22;27555;50.808;4.402;2023-12-20T02:22:18;7.00;99.90
41876;DHT22;27555;50.808;4.402;2023-12-20T02:24:43;6.90;99.90
41876;DHT22;27555;50.808;4.402;2023-12-20T02:27:09;6.70;99.90
41876;DHT22;27555;50.808;4.402;2023-12-20T02:29:35;6.70;99.90
41876;DHT22;27555;50.808;4.402;2023-12-20T02:32:01;6.70;99.90
41876;DHT22;27555;50.808;4.402;2023-12-20T02:34:26;6.70;99.90
41876;DHT22;27555;50.808;4.402;2023-12-20T02:36:52;6.70;99.90
41876;DHT22;27555;50.808;4.402;2023-12-20T02:39:18;6.60;99.90
41876;DHT22;27555;50.808;4.402;2023-12-20T02:41:44;6.40;99.90
41876;DHT22;27555;50.808;4.402;2023-12-20T02:44:09;6.30;99.90
41876;DHT22;27555;50.808;4.402;2023-12-20T02:46:35;6.30;99.90
41876;DHT22;27555;50.808;4.402;2023-12-20T02:49:00;6.30;99.90
41876;DHT22;27555;50.808;4.402;2023-12-20T02:51:25;6.00;99.90
41876;DHT22;27555;50.808;4.402;2023-12-20T02:53:51;6.10;99.90
41876;DHT22;27555;50.808;4.402;2023-12-20T02:56:16;6.20;99.90
41876;DHT22;27555;50.808;4.402;2023-12-20T02:58:42;6.50;99.90
41876;DHT22;27555;50.808;4.402;2023-12-20T03:01:08;6.50;99.90
41876;DHT22;27555;50.808;4.402;2023-12-20T03:03:33;6.50;99.90
41876;DHT22;27555;50.808;4.402;2023-12-20T03:05:59;6.50;99.90
41876;DHT22;27555;50.808;4.402;2023-12-20T03:08:25;6.50;99.90
41876;DHT22;27555;50.808;4.402;2023-12-20T03:10:50;6.50;99.90
41876;DHT22;27555;50.808;4.402;2023-12-20T03:13:16;6.40;99.90
41876;DHT22;27555;50.808;4.402;2023-12-20T03:15:41;6.60;99.90
41876;DHT22;27555;50.808;4.402;2023-12-20T03:18:07;6.80;99.90
41876;DHT22;27555;50.808;4.402;2023-12-20T03:20:32;6.90;99.90
41876;DHT22;27555;50.808;4.402;2023-12-20T03:22:59;7.00;99.90
41876;DHT22;27555;50.808;4.402;2023-12-20T03:25:25;7.00;99.90
41876;DHT22;27555;50.808;4.402;2023-12-20T03:27:50;6.90;99.90
41876;DHT22;27555;50.808;4.402;2023-12-20T03:30:16;7.00;99.90
41876;DHT22;27555;50.808;4.402;2023-12-20T03:32:41;7.20;99.90
41876;DHT22;27555;50.808;4.402;2023-12-20T03:35:07;7.30;99.90
41876;DHT22;27555;50.808;4.402;2023-12-20T03:37:32;7.40;99.90
41876;DHT22;27555;50.808;4.402;2023-12-20T03:39:58;7.40;99.90
41876;DHT22;27555;50.808;4.402;2023-12-20T03:42:24;7.20;99.90
41876;DHT22;27555;50.808;4.402;2023-12-20T03:44:49;7.20;99.90
41876;DHT22;27555;50.808;4.402;2023-12-20T03:47:14;7.20;99.90
41876;DHT22;27555;50.808;4.402;2023-12-20T03:49:40;7.10;99.90
41876;DHT22;27555;50.808;4.402;2023-12-20T03:52:05;7.10;99.90
41876;DHT22;27555;50.808;4.402;2023-12-20T03:54:31;7.10;99.90
41876;DHT22;27555;50.808;4.402;2023-12-20T03:56:56;7.10;99.90
41876;DHT22;27555;50.808;4.402;2023-12-20T03:59:22;7.00;99.90
41876;DHT22;27555;50.808;4.402;2023-12-20T04:01:47;6.80;99.90
41876;DHT22;27555;50.808;4.402;2023-12-20T04:04:13;6.80;99.90
41876;DHT22;27555;50.808;4.402;2023-12-20T04:06:39;6.80;99.90
41876;DHT22;27555;50.808;4.402;2023-12-20T04:09:04;6.90;99.90
41876;DHT22;27555;50.808;4.402;2023-12-20T04:11:30;7.00;99.90
41876;DHT22;27555;50.808;4.402;2023-12-20T04:13:55;7.10;99.90
41876;DHT22;27555;50.808;4.402;2023-12-20T04:16:21;7.00;99.90
41876;DHT22;27555;50.808;4.402;2023-12-20T04:18:46;7.10;99.90
41876;DHT22;27555;50.808;4.402;2023-12-20T04:21:12;7.10;99.90
41876;DHT22;27555;50.808;4.402;2023-12-20T04:23:37;7.00;99.90
41876;DHT22;27555;50.808;4.402;2023-12-20T04:26:03;6.90;99.90
41876;DHT22;27555;50.808;4.402;2023-12-20T04:28:28;6.70;99.90
41876;DHT22;27555;50.808;4.402;2023-12-20T04:30:56;6.70;99.90
41876;DHT22;27555;50.808;4.402;2023-12-20T04:33:22;6.70;99.90
41876;DHT22;27555;50.808;4.402;2023-12-20T04:35:48;6.70;99.90
41876;DHT22;27555;50.808;4.402;2023-12-20T04:38:13;6.80;99.90
41876;DHT22;27555;50.808;4.402;2023-12-20T04:40:39;6.80;99.90
41876;DHT22;27555;50.808;4.402;2023-12-20T04:43:06;6.70;99.90
41876;DHT22;27555;50.808;4.402;2023-12-20T04:45:32;6.80;99.90
41876;DHT22;27555;50.808;4.402;2023-12-20T04:47:57;6.90;99.90
41876;DHT22;27555;50.808;4.402;2023-12-20T04:50:23;6.90;99.90
41876;DHT22;27555;50.808;4.402;2023-12-20T04:52:48;6.80;99.90
41876;DHT22;27555;50.808;4.402;2023-12-20T04:55:14;6.80;99.90
41876;DHT22;27555;50.808;4.402;2023-12-20T04:57:39;6.90;99.90
41876;DHT22;27555;50.808;4.402;2023-12-20T05:00:05;7.00;99.90
41876;DHT22;27555;50.808;4.402;2023-12-20T05:02:31;7.50;99.90
41876;DHT22;27555;50.808;4.402;2023-12-20T05:04:56;7.20;99.90
41876;DHT22;27555;50.808;4.402;2023-12-20T05:07:22;7.20;99.90
41876;DHT22;27555;50.808;4.402;2023-12-20T05:09:47;7.30;99.90
41876;DHT22;27555;50.808;4.402;2023-12-20T05:12:13;7.10;99.90
41876;DHT22;27555;50.808;4.402;2023-12-20T05:14:39;7.10;99.90
41876;DHT22;27555;50.808;4.402;2023-12-20T05:17:04;7.30;99.90
41876;DHT22;27555;50.808;4.402;2023-12-20T05:19:30;7.10;99.90
41876;DHT22;27555;50.808;4.402;2023-12-20T05:21:55;7.00;99.90
41876;DHT22;27555;50.808;4.402;2023-12-20T05:24:21;6.90;99.90
41876;DHT22;27555;50.808;4.402;2023-12-20T05:26:46;6.90;99.90
41876;DHT22;27555;50.808;4.402;2023-12-20T05:29:12;6.90;99.90
41876;DHT22;27555;50.808;4.402;2023-12-20T05:31:37;6.90;99.90
41876;DHT22;27555;50.808;4.402;2023-12-20T05:34:03;6.80;99.90
41876;DHT22;27555;50.808;4.402;2023-12-20T05:36:28;6.70;99.90
41876;DHT22;27555;50.808;4.402;2023-12-20T05:38:54;6.70;99.90
41876;DHT22;27555;50.808;4.402;2023-12-20T05:41:19;6.50;99.90
41876;DHT22;27555;50.808;4.402;2023-12-20T05:43:46;6.50;99.90
41876;DHT22;27555;50.808;4.402;2023-12-20T05:46:12;6.70;99.90
41876;DHT22;27555;50.808;4.402;2023-12-20T05:48:37;6.60;99.90
41876;DHT22;27555;50.808;4.402;2023-12-20T05:51:03;6.80;99.90
41876;DHT22;27555;50.808;4.402;2023-12-20T05:53:29;6.70;99.90
41876;DHT22;27555;50.808;4.402;2023-12-20T05:55:54;6.60;99.90
41876;DHT22;27555;50.808;4.402;2023-12-20T05:58:20;6.60;99.90
41876;DHT22;27555;50.808;4.402;2023-12-20T06:00:45;6.60;99.90
41876;DHT22;27555;50.808;4.402;2023-12-20T06:03:11;6.40;99.90
41876;DHT22;27555;50.808;4.402;2023-12-20T06:05:36;6.40;99.90
41876;DHT22;27555;50.808;4.402;2023-12-20T06:08:02;6.40;99.90
41876;DHT22;27555;50.808;4.402;2023-12-20T06:10:28;6.40;99.90
41876;DHT22;27555;50.808;4.402;2023-12-20T06:12:54;6.10;99.90
41876;DHT22;27555;50.808;4.402;2023-12-20T06:15:20;6.10;99.90
41876;DHT22;27555;50.808;4.402;2023-12-20T06:17:46;6.30;99.90
41876;DHT22;27555;50.808;4.402;2023-12-20T06:20:12;6.40;99.90
41876;DHT22;27555;50.808;4.402;2023-12-20T06:22:38;6.30;99.90
41876;DHT22;27555;50.808;4.402;2023-12-20T06:25:04;6.40;99.90
41876;DHT22;27555;50.808;4.402;2023-12-20T06:27:30;6.40;99.90
41876;DHT22;27555;50.808;4.402;2023-12-20T06:29:57;6.60;99.90
41876;DHT22;27555;50.808;4.402;2023-12-20T06:32:23;6.70;99.90
41876;DHT22;27555;50.808;4.402;2023-12-20T06:34:49;6.80;99.90
41876;DHT22;27555;50.808;4.402;2023-12-20T06:37:15;6.90;99.90
41876;DHT22;27555;50.808;4.402;2023-12-20T06:39:40;6.90;99.90
41876;DHT22;27555;50.808;4.402;2023-12-20T06:42:06;7.10;99.90
41876;DHT22;27555;50.808;4.402;2023-12-20T06:44:31;7.10;99.90
41876;DHT22;27555;50.808;4.402;2023-12-20T06:46:57;7.10;99.90
41876;DHT22;27555;50.808;4.402;2023-12-20T06:49:23;6.80;99.90
41876;DHT22;27555;50.808;4.402;2023-12-20T06:51:48;6.50;99.90
41876;DHT22;27555;50.808;4.402;2023-12-20T06:54:14;6.50;99.90
41876;DHT22;27555;50.808;4.402;2023-12-20T06:56:39;6.40;99.90
41876;DHT22;27555;50.808;4.402;2023-12-20T06:59:06;6.40;99.90
41876;DHT22;27555;50.808;4.402;2023-12-20T07:01:32;6.30;99.90
41876;DHT22;27555;50.808;4.402;2023-12-20T07:03:57;6.00;99.90
41876;DHT22;27555;50.808;4.402;2023-12-20T07:06:23;6.00;99.90
41876;DHT22;27555;50.808;4.402;2023-12-20T07:08:49;6.10;99.90
41876;DHT22;27555;50.808;4.402;2023-12-20T07:11:14;6.10;99.90
41876;DHT22;27555;50.808;4.402;2023-12-20T07:13:40;6.10;99.90
41876;DHT22;27555;50.808;4.402;2023-12-20T07:16:05;6.00;99.90
41876;DHT22;27555;50.808;4.402;2023-12-20T07:18:31;6.00;99.90
41876;DHT22;27555;50.808;4.402;2023-12-20T07:20:56;6.00;99.90
41876;DHT22;27555;50.808;4.402;2023-12-20T07:23:22;6.00;99.90
41876;DHT22;27555;50.808;4.402;2023-12-20T07:25:47;6.00;99.90
41876;DHT22;27555;50.808;4.402;2023-12-20T07:28:13;5.80;99.90
41876;DHT22;27555;50.808;4.402;2023-12-20T07:30:39;5.80;99.90
41876;DHT22;27555;50.808;4.402;2023-12-20T07:33:04;5.80;99.90
41876;DHT22;27555;50.808;4.402;2023-12-20T07:35:30;5.80;99.90
41876;DHT22;27555;50.808;4.402;2023-12-20T07:37:55;5.60;99.90
41876;DHT22;27555;50.808;4.402;2023-12-20T07:40:21;5.70;99.90
41876;DHT22;27555;50.808;4.402;2023-12-20T07:42:46;5.70;99.90
41876;DHT22;27555;50.808;4.402;2023-12-20T07:45:12;5.80;99.90
41876;DHT22;27555;50.808;4.402;2023-12-20T07:47:38;5.90;99.90
41876;DHT22;27555;50.808;4.402;2023-12-20T07:50:04;5.80;99.90
41876;DHT22;27555;50.808;4.402;2023-12-20T07:52:31;5.80;99.90
41876;DHT22;27555;50.808;4.402;2023-12-20T07:54:56;5.80;99.90
41876;DHT22;27555;50.808;4.402;2023-12-20T07:57:23;5.80;99.90
41876;DHT22;27555;50.808;4.402;2023-12-20T07:59:48;5.90;99.90
41876;DHT22;27555;50.808;4.402;2023-12-20T08:02:14;5.90;99.90
41876;DHT22;27555;50.808;4.402;2023-12-20T08:04:39;5.90;99.90
41876;DHT22;27555;50.808;4.402;2023-12-20T08:07:06;5.90;99.90
41876;DHT22;27555;50.808;4.402;2023-12-20T08:09:32;5.80;99.90
41876;DHT22;27555;50.808;4.402;2023-12-20T08:11:59;5.90;99.90
41876;DHT22;27555;50.808;4.402;2023-12-20T08:14:25;6.00;99.90
41876;DHT22;27555;50.808;4.402;2023-12-20T08:16:50;6.10;99.90
41876;DHT22;27555;50.808;4.402;2023-12-20T08:19:16;6.20;99.90
41876;DHT22;27555;50.808;4.402;2023-12-20T08:21:42;6.20;99.90
41876;DHT22;27555;50.808;4.402;2023-12-20T08:24:07;6.40;99.90
41876;DHT22;27555;50.808;4.402;2023-12-20T08:26:33;6.20;99.90
41876;DHT22;27555;50.808;4.402;2023-12-20T08:28:59;6.30;99.90
41876;DHT22;27555;50.808;4.402;2023-12-20T08:31:24;6.30;99.90
41876;DHT22;27555;50.808;4.402;2023-12-20T08:33:50;6.30;99.90
41876;DHT22;27555;50.808;4.402;2023-12-20T08:36:15;6.20;99.90
41876;DHT22;27555;50.808;4.402;2023-12-20T08:38:43;6.30;99.90
41876;DHT22;27555;50.808;4.402;2023-12-20T08:41:08;6.00;99.90
41876;DHT22;27555;50.808;4.402;2023-12-20T08:43:34;6.00;99.90
41876;DHT22;27555;50.808;4.402;2023-12-20T08:46:00;6.10;99.90
41876;DHT22;27555;50.808;4.402;2023-12-20T08:48:25;6.20;99.90
41876;DHT22;27555;50.808;4.402;2023-12-20T08:50:51;6.10;99.90
41876;DHT22;27555;50.808;4.402;2023-12-20T08:53:18;6.30;99.90
41876;DHT22;27555;50.808;4.402;2023-12-20T08:55:43;6.20;99.90
41876;DHT22;27555;50.808;4.402;2023-12-20T08:58:09;6.00;99.90
41876;DHT22;27555;50.808;4.402;2023-12-20T09:00:34;6.10;99.90
41876;DHT22;27555;50.808;4.402;2023-12-20T09:03:01;6.20;99.90
41876;DHT22;27555;50.808;4.402;2023-12-20T09:05:26;6.30;99.90
41876;DHT22;27555;50.808;4.402;2023-12-20T09:07:52;6.30;99.90
41876;DHT22;27555;50.808;4.402;2023-12-20T09:10:17;6.50;99.90
41876;DHT22;27555;50.808;4.402;2023-12-20T09:12:48;6.50;99.90
41876;DHT22;27555;50.808;4.402;2023-12-20T09:15:14;6.50;99.90
41876;DHT22;27555;50.808;4.402;2023-12-20T09:17:40;6.40;99.90
41876;DHT22;27555;50.808;4.402;2023-12-20T09:20:06;6.80;99.90
41876;DHT22;27555;50.808;4.402;2023-12-20T09:22:33;7.40;99.90
41876;DHT22;27555;50.808;4.402;2023-12-20T09:24:59;7.80;99.90
41876;DHT22;27555;50.808;4.402;2023-12-20T09:27:24;9.00;99.90
41876;DHT22;27555;50.808;4.402;2023-12-20T09:29:50;9.00;99.90
41876;DHT22;27555;50.808;4.402;2023-12-20T09:32:15;8.90;99.90
41876;DHT22;27555;50.808;4.402;2023-12-20T09:34:41;8.60;99.90
41876;DHT22;27555;50.808;4.402;2023-12-20T09:37:07;8.30;99.90
41876;DHT22;27555;50.808;4.402;2023-12-20T09:39:33;8.10;99.90
41876;DHT22;27555;50.808;4.402;2023-12-20T09:42:02;7.70;99.90
41876;DHT22;27555;50.808;4.402;2023-12-20T09:44:28;7.60;99.90
41876;DHT22;27555;50.808;4.402;2023-12-20T09:46:54;7.60;99.90
41876;DHT22;27555;50.808;4.402;2023-12-20T09:49:20;7.70;99.90
41876;DHT22;27555;50.808;4.402;2023-12-20T09:51:46;7.70;99.90
41876;DHT22;27555;50.808;4.402;2023-12-20T09:54:13;8.00;99.90
41876;DHT22;27555;50.808;4.402;2023-12-20T09:56:39;8.00;99.90
41876;DHT22;27555;50.808;4.402;2023-12-20T09:59:04;8.00;99.90
41876;DHT22;27555;50.808;4.402;2023-12-20T10:01:30;8.00;99.90
41876;DHT22;27555;50.808;4.402;2023-12-20T10:03:56;8.20;99.90
41876;DHT22;27555;50.808;4.402;2023-12-20T10:06:23;8.40;99.90
41876;DHT22;27555;50.808;4.402;2023-12-20T10:08:49;8.50;99.90
41876;DHT22;27555;50.808;4.402;2023-12-20T10:11:14;8.60;99.90
41876;DHT22;27555;50.808;4.402;2023-12-20T10:13:40;8.50;99.90
41876;DHT22;27555;50.808;4.402;2023-12-20T10:16:06;8.70;99.90
41876;DHT22;27555;50.808;4.402;2023-12-20T10:18:32;8.60;99.90
41876;DHT22;27555;50.808;4.402;2023-12-20T10:20:58;8.30;99.90
41876;DHT22;27555;50.808;4.402;2023-12-20T10:23:23;8.20;99.90
41876;DHT22;27555;50.808;4.402;2023-12-20T10:25:55;8.40;99.90
41876;DHT22;27555;50.808;4.402;2023-12-20T10:28:22;8.40;99.90
41876;DHT22;27555;50.808;4.402;2023-12-20T10:30:50;8.20;99.90
41876;DHT22;27555;50.808;4.402;2023-12-20T10:33:26;8.30;99.90
41876;DHT22;27555;50.808;4.402;2023-12-20T10:35:52;8.50;99.90
41876;DHT22;27555;50.808;4.402;2023-12-20T10:38:17;8.70;99.90
41876;DHT22;27555;50.808;4.402;2023-12-20T10:40:43;8.80;99.90
41876;DHT22;27555;50.808;4.402;2023-12-20T10:43:10;8.70;99.90
41876;DHT22;27555;50.808;4.402;2023-12-20T10:45:35;8.50;99.90
41876;DHT22;27555;50.808;4.402;2023-12-20T10:48:01;8.30;99.90
41876;DHT22;27555;50.808;4.402;2023-12-20T10:50:27;8.10;99.90
41876;DHT22;27555;50.808;4.402;2023-12-20T10:52:56;8.00;99.90
41876;DHT22;27555;50.808;4.402;2023-12-20T10:55:22;8.20;99.90
41876;DHT22;27555;50.808;4.402;2023-12-20T10:57:49;8.30;99.90
41876;DHT22;27555;50.808;4.402;2023-12-20T11:00:17;8.50;99.90
41876;DHT22;27555;50.808;4.402;2023-12-20T11:02:43;8.50;99.90
41876;DHT22;27555;50.808;4.402;2023-12-20T11:07:45;8.60;99.90
41876;DHT22;27555;50.808;4.402;2023-12-20T11:10:14;8.50;99.90
41876;DHT22;27555;50.808;4.402;2023-12-20T11:15:10;8.80;99.90
41876;DHT22;27555;50.808;4.402;2023-12-20T11:17:36;8.70;99.90
41876;DHT22;27555;50.808;4.402;2023-12-20T11:20:04;8.70;99.90
41876;DHT22;27555;50.808;4.402;2023-12-20T11:22:31;8.80;99.90
41876;DHT22;27555;50.808;4.402;2023-12-20T11:25:09;8.80;99.90
41876;DHT22;27555;50.808;4.402;2023-12-20T11:27:36;9.00;99.90
41876;DHT22;27555;50.808;4.402;2023-12-20T11:30:04;9.20;99.90
41876;DHT22;27555;50.808;4.402;2023-12-20T11:32:34;9.00;99.90
41876;DHT22;27555;50.808;4.402;2023-12-20T11:35:01;8.80;99.90
41876;DHT22;27555;50.808;4.402;2023-12-20T11:37:41;8.80;99.90
41876;DHT22;27555;50.808;4.402;2023-12-20T11:40:13;9.00;99.90
41876;DHT22;27555;50.808;4.402;2023-12-20T11:42:43;8.90;99.90
41876;DHT22;27555;50.808;4.402;2023-12-20T11:45:15;8.70;99.90
41876;DHT22;27555;50.808;4.402;2023-12-20T11:47:45;8.80;99.90
41876;DHT22;27555;50.808;4.402;2023-12-20T11:50:11;8.80;99.90
41876;DHT22;27555;50.808;4.402;2023-12-20T11:52:36;9.00;99.90
41876;DHT22;27555;50.808;4.402;2023-12-20T11:55:02;9.10;99.90
41876;DHT22;27555;50.808;4.402;2023-12-20T11:57:29;9.00;99.90
41876;DHT22;27555;50.808;4.402;2023-12-20T11:59:54;9.10;99.90
41876;DHT22;27555;50.808;4.402;2023-12-20T12:02:20;9.00;99.90
41876;DHT22;27555;50.808;4.402;2023-12-20T12:04:45;9.10;99.90
41876;DHT22;27555;50.808;4.402;2023-12-20T12:07:13;9.10;99.90
41876;DHT22;27555;50.808;4.402;2023-12-20T12:09:39;9.00;99.90
41876;DHT22;27555;50.808;4.402;2023-12-20T12:12:05;9.20;99.90
41876;DHT22;27555;50.808;4.402;2023-12-20T12:14:30;9.20;99.90
41876;DHT22;27555;50.808;4.402;2023-12-20T12:16:56;9.30;99.90
41876;DHT22;27555;50.808;4.402;2023-12-20T12:19:22;9.30;99.90
41876;DHT22;27555;50.808;4.402;2023-12-20T12:21:49;9.60;99.90
41876;DHT22;27555;50.808;4.402;2023-12-20T12:24:14;9.40;99.90
41876;DHT22;27555;50.808;4.402;2023-12-20T12:26:40;9.60;99.90
41876;DHT22;27555;50.808;4.402;2023-12-20T12:29:08;9.40;99.90
41876;DHT22;27555;50.808;4.402;2023-12-20T12:31:35;9.10;99.90
41876;DHT22;27555;50.808;4.402;2023-12-20T12:34:01;9.20;99.90
41876;DHT22;27555;50.808;4.402;2023-12-20T12:36:27;9.30;99.90
41876;DHT22;27555;50.808;4.402;2023-12-20T12:38:53;9.40;99.90
41876;DHT22;27555;50.808;4.402;2023-12-20T12:41:21;9.50;99.90
41876;DHT22;27555;50.808;4.402;2023-12-20T12:43:46;9.40;99.90
41876;DHT22;27555;50.808;4.402;2023-12-20T12:46:12;9.40;99.90
41876;DHT22;27555;50.808;4.402;2023-12-20T12:48:38;9.20;99.90
41876;DHT22;27555;50.808;4.402;2023-12-20T12:51:04;9.20;99.90
41876;DHT22;27555;50.808;4.402;2023-12-20T12:53:29;9.00;99.90
41876;DHT22;27555;50.808;4.402;2023-12-20T12:55:55;8.90;99.90
41876;DHT22;27555;50.808;4.402;2023-12-20T12:58:20;9.00;99.90
41876;DHT22;27555;50.808;4.402;2023-12-20T13:00:46;9.10;99.90
41876;DHT22;27555;50.808;4.402;2023-12-20T13:03:12;9.20;99.90
41876;DHT22;27555;50.808;4.402;2023-12-20T13:05:37;9.30;99.90
41876;DHT22;27555;50.808;4.402;2023-12-20T13:08:03;9.30;99.90
41876;DHT22;27555;50.808;4.402;2023-12-20T13:10:28;9.00;99.90
41876;DHT22;27555;50.808;4.402;2023-12-20T13:12:54;8.90;99.90
41876;DHT22;27555;50.808;4.402;2023-12-20T13:15:19;9.10;99.90
41876;DHT22;27555;50.808;4.402;2023-12-20T13:17:45;9.20;99.90
41876;DHT22;27555;50.808;4.402;2023-12-20T13:20:11;9.20;99.90
41876;DHT22;27555;50.808;4.402;2023-12-20T13:22:37;9.00;99.90
41876;DHT22;27555;50.808;4.402;2023-12-20T13:25:02;9.00;99.90
41876;DHT22;27555;50.808;4.402;2023-12-20T13:27:28;9.30;99.90
41876;DHT22;27555;50.808;4.402;2023-12-20T13:29:53;9.40;99.90
41876;DHT22;27555;50.808;4.402;2023-12-20T13:32:19;9.50;99.90
41876;DHT22;27555;50.808;4.402;2023-12-20T13:34:45;9.60;99.90
41876;DHT22;27555;50.808;4.402;2023-12-20T13:37:11;9.80;99.90
41876;DHT22;27555;50.808;4.402;2023-12-20T13:39:36;9.90;99.90
41876;DHT22;27555;50.808;4.402;2023-12-20T13:42:02;9.70;99.90
41876;DHT22;27555;50.808;4.402;2023-12-20T13:44:27;9.90;99.90
41876;DHT22;27555;50.808;4.402;2023-12-20T13:46:53;10.00;99.90
41876;DHT22;27555;50.808;4.402;2023-12-20T13:49:18;9.80;99.90
41876;DHT22;27555;50.808;4.402;2023-12-20T13:51:44;9.60;99.90
41876;DHT22;27555;50.808;4.402;2023-12-20T13:54:09;9.40;99.90
41876;DHT22;27555;50.808;4.402;2023-12-20T13:56:36;9.70;99.90
41876;DHT22;27555;50.808;4.402;2023-12-20T13:59:01;9.40;99.90
41876;DHT22;27555;50.808;4.402;2023-12-20T14:01:27;9.20;99.90
41876;DHT22;27555;50.808;4.402;2023-12-20T14:03:52;9.40;99.90
41876;DHT22;27555;50.808;4.402;2023-12-20T14:06:18;9.40;99.90
41876;DHT22;27555;50.808;4.402;2023-12-20T14:08:43;9.60;99.90
41876;DHT22;27555;50.808;4.402;2023-12-20T14:11:09;9.50;99.90
41876;DHT22;27555;50.808;4.402;2023-12-20T14:13:35;9.60;99.90
41876;DHT22;27555;50.808;4.402;2023-12-20T14:16:01;9.70;99.90
41876;DHT22;27555;50.808;4.402;2023-12-20T14:18:28;9.70;99.90
41876;DHT22;27555;50.808;4.402;2023-12-20T14:20:55;9.70;99.90
41876;DHT22;27555;50.808;4.402;2023-12-20T14:23:21;9.70;99.90
41876;DHT22;27555;50.808;4.402;2023-12-20T14:25:47;9.70;99.90
41876;DHT22;27555;50.808;4.402;2023-12-20T14:28:14;9.70;99.90
41876;DHT22;27555;50.808;4.402;2023-12-20T14:30:40;9.70;99.90
41876;DHT22;27555;50.808;4.402;2023-12-20T14:33:05;9.70;99.90
41876;DHT22;27555;50.808;4.402;2023-12-20T14:35:31;10.00;99.90
41876;DHT22;27555;50.808;4.402;2023-12-20T14:37:57;9.90;99.90
41876;DHT22;27555;50.808;4.402;2023-12-20T14:40:22;9.90;99.90
41876;DHT22;27555;50.808;4.402;2023-12-20T14:42:48;9.90;99.90
41876;DHT22;27555;50.808;4.402;2023-12-20T14:45:14;9.90;99.90
41876;DHT22;27555;50.808;4.402;2023-12-20T14:47:41;10.00;99.90
41876;DHT22;27555;50.808;4.402;2023-12-20T14:50:07;10.00;99.90
41876;DHT22;27555;50.808;4.402;2023-12-20T14:52:33;10.10;99.90
41876;DHT22;27555;50.808;4.402;2023-12-20T14:54:59;10.10;99.90
41876;DHT22;27555;50.808;4.402;2023-12-20T14:57:25;10.00;99.90
41876;DHT22;27555;50.808;4.402;2023-12-20T14:59:51;10.00;99.90
41876;DHT22;27555;50.808;4.402;2023-12-20T15:02:17;10.20;99.90
41876;DHT22;27555;50.808;4.402;2023-12-20T15:04:43;10.30;99.90
41876;DHT22;27555;50.808;4.402;2023-12-20T15:07:08;10.20;99.90
41876;DHT22;27555;50.808;4.402;2023-12-20T15:09:34;10.20;99.90
41876;DHT22;27555;50.808;4.402;2023-12-20T15:11:59;10.30;99.90
41876;DHT22;27555;50.808;4.402;2023-12-20T15:14:25;10.20;99.90
41876;DHT22;27555;50.808;4.402;2023-12-20T15:16:51;10.30;99.90
41876;DHT22;27555;50.808;4.402;2023-12-20T15:19:16;10.20;99.90
41876;DHT22;27555;50.808;4.402;2023-12-20T15:21:42;10.10;99.90
41876;DHT22;27555;50.808;4.402;2023-12-20T15:24:08;10.10;99.90
41876;DHT22;27555;50.808;4.402;2023-12-20T15:26:40;10.00;99.90
41876;DHT22;27555;50.808;4.402;2023-12-20T15:29:06;9.90;99.90
41876;DHT22;27555;50.808;4.402;2023-12-20T15:31:31;9.80;99.90
41876;DHT22;27555;50.808;4.402;2023-12-20T15:33:58;9.80;99.90
41876;DHT22;27555;50.808;4.402;2023-12-20T15:36:24;9.60;99.90
41876;DHT22;27555;50.808;4.402;2023-12-20T15:38:49;9.60;99.90
41876;DHT22;27555;50.808;4.402;2023-12-20T15:41:18;9.50;99.90